Time;durP1;ratioP1;P1;durP2;ratioP2;P2;SDS_P1;SDS_P2;PMS_P1;PMS_P2;Temp;Humidity;BMP_temperature;BMP_pressure;BME280_temperature;BME280_humidity;BME280_pressure;Samples;Min_cycle;Max_cycle;Signal;HPM_P1;HPM_P2
2022/06/29 00:00:12;;;;;;;9.00;7.78;;;;;;;;;;5052532;28;20032;-78
2022/06/29 00:05:41;;;;;;;9.32;7.95;;;;;;;;;;5053621;28;20102;-77
2022/06/29 00:08:07;;;;;;;7.90;7.20;;;;;;;;;;5053511;28;20032;-79
2022/06/29 00:10:34;;;;;;;8.45;7.60;;;;;;;;;;5052220;28;20481;-78
2022/06/29 00:13:00;;;;;;;8.60;7.70;;;;;;;;;;5052277;28;20021;-77
2022/06/29 00:15:26;;;;;;;8.13;7.43;;;;;;;;;;5052118;28;20044;-79
2022/06/29 00:17:52;;;;;;;9.05;7.32;;;;;;;;;;5052127;28;20021;-78
2022/06/29 00:20:19;;;;;;;7.97;7.20;;;;;;;;;;5051902;28;20074;-77
2022/06/29 00:22:45;;;;;;;10.98;7.35;;;;;;;;;;5052094;28;20113;-78
2022/06/29 00:25:12;;;;;;;7.70;6.90;;;;;;;;;;5051728;28;20130;-77
2022/06/29 00:27:39;;;;;;;8.38;7.50;;;;;;;;;;5052098;28;20067;-79
2022/06/29 00:30:06;;;;;;;8.32;7.28;;;;;;;;;;5051985;28;20024;-76
2022/06/29 00:32:32;;;;;;;7.95;7.20;;;;;;;;;;5051924;28;20086;-79
2022/06/29 00:34:59;;;;;;;8.45;7.63;;;;;;;;;;5051994;28;20017;-79
2022/06/29 00:37:25;;;;;;;8.25;7.45;;;;;;;;;;5053180;28;20039;-77
2022/06/29 00:39:53;;;;;;;8.55;7.65;;;;;;;;;;5051892;28;20071;-77
2022/06/29 00:42:19;;;;;;;8.40;7.63;;;;;;;;;;5053133;28;20462;-77
2022/06/29 00:44:46;;;;;;;8.38;7.65;;;;;;;;;;5051673;28;20104;-79
2022/06/29 00:47:12;;;;;;;8.60;7.80;;;;;;;;;;5051802;28;20045;-79
2022/06/29 00:49:38;;;;;;;8.38;7.53;;;;;;;;;;5051820;28;20398;-77
2022/06/29 00:52:12;;;;;;;7.88;6.90;;;;;;;;;;5051757;28;20123;-78
2022/06/29 00:54:43;;;;;;;8.25;7.50;;;;;;;;;;5053061;28;20064;-79
2022/06/29 00:57:12;;;;;;;8.13;7.28;;;;;;;;;;5051849;28;20455;-77
2022/06/29 00:59:43;;;;;;;8.18;7.30;;;;;;;;;;5051761;28;20032;-79
2022/06/29 01:02:09;;;;;;;8.85;7.80;;;;;;;;;;5051812;28;20025;-77
2022/06/29 01:04:35;;;;;;;8.18;7.45;;;;;;;;;;5051719;28;20044;-77
2022/06/29 01:07:01;;;;;;;8.15;7.35;;;;;;;;;;5051605;28;20048;-77
2022/06/29 01:09:27;;;;;;;8.73;7.93;;;;;;;;;;5053080;28;20424;-78
2022/06/29 01:11:53;;;;;;;8.63;7.82;;;;;;;;;;5051696;28;20024;-79
2022/06/29 01:14:19;;;;;;;8.90;8.00;;;;;;;;;;5051553;28;20412;-79
2022/06/29 01:16:46;;;;;;;9.80;8.60;;;;;;;;;;5052909;28;20032;-79
2022/06/29 01:19:12;;;;;;;8.50;7.70;;;;;;;;;;5051696;28;20029;-78
2022/06/29 01:21:40;;;;;;;8.20;7.40;;;;;;;;;;5052880;28;20029;-77
2022/06/29 01:24:06;;;;;;;8.45;7.53;;;;;;;;;;5051584;28;20036;-77
2022/06/29 01:26:32;;;;;;;8.68;7.88;;;;;;;;;;5051236;28;20075;-78
2022/06/29 01:28:58;;;;;;;9.07;8.20;;;;;;;;;;5051427;28;20021;-78
2022/06/29 01:31:24;;;;;;;9.73;8.50;;;;;;;;;;5051482;28;20390;-79
2022/06/29 01:33:50;;;;;;;9.75;8.75;;;;;;;;;;5055320;28;20105;-79
2022/06/29 01:36:17;;;;;;;9.63;8.73;;;;;;;;;;5055061;28;20029;-78
2022/06/29 01:38:44;;;;;;;9.55;8.07;;;;;;;;;;5054951;28;20371;-79
2022/06/29 01:41:11;;;;;;;8.80;8.00;;;;;;;;;;5056286;28;20119;-78
2022/06/29 01:43:40;;;;;;;9.48;8.50;;;;;;;;;;5054833;28;20024;-79
2022/06/29 01:46:07;;;;;;;9.35;8.45;;;;;;;;;;5055964;28;20090;-76
2022/06/29 01:48:33;;;;;;;9.02;8.13;;;;;;;;;;5054790;28;20106;-78
2022/06/29 01:51:00;;;;;;;8.93;8.00;;;;;;;;;;5055958;28;20636;-77
2022/06/29 01:53:26;;;;;;;8.57;7.68;;;;;;;;;;5055995;28;20386;-77
2022/06/29 01:55:52;;;;;;;8.82;7.93;;;;;;;;;;5054663;28;20492;-79
2022/06/29 01:58:18;;;;;;;9.35;8.45;;;;;;;;;;5055921;28;20438;-78
2022/06/29 02:00:45;;;;;;;8.90;8.00;;;;;;;;;;5054603;28;20025;-76
2022/06/29 02:03:11;;;;;;;9.88;8.82;;;;;;;;;;5055807;28;20100;-77
2022/06/29 02:05:37;;;;;;;9.98;9.07;;;;;;;;;;5055868;28;20478;-79
2022/06/29 02:08:04;;;;;;;8.88;8.07;;;;;;;;;;5055730;28;20060;-79
2022/06/29 02:10:30;;;;;;;8.65;7.85;;;;;;;;;;5055638;28;20035;-76
2022/06/29 02:12:56;;;;;;;9.38;8.38;;;;;;;;;;5054610;28;20025;-79
2022/06/29 02:15:23;;;;;;;9.00;8.18;;;;;;;;;;5054265;28;20057;-78
2022/06/29 02:17:50;;;;;;;13.00;9.18;;;;;;;;;;5055553;28;20025;-76
2022/06/29 02:20:16;;;;;;;9.75;8.75;;;;;;;;;;5054173;28;20039;-79
2022/06/29 02:22:42;;;;;;;9.75;8.75;;;;;;;;;;5055444;28;20025;-76
2022/06/29 02:25:09;;;;;;;9.50;8.60;;;;;;;;;;5053811;28;20021;-76
2022/06/29 02:27:55;;;;;;;9.93;8.98;;;;;;;;;;5054196;28;20036;-77
2022/06/29 02:34:43;;;;;;;9.73;8.73;;;;;;;;;;5053967;28;20029;-79
2022/06/29 02:35:53;;;;;;;10.55;8.70;;;;;;;;;;5055459;28;20063;-78
2022/06/29 02:38:19;;;;;;;9.45;8.38;;;;;;;;;;5053883;28;20496;-77
2022/06/29 02:40:45;;;;;;;9.13;8.23;;;;;;;;;;5053745;28;20032;-79
2022/06/29 02:43:11;;;;;;;10.18;9.18;;;;;;;;;;5054977;28;20108;-77
2022/06/29 02:45:38;;;;;;;10.50;9.13;;;;;;;;;;5053647;28;20033;-78
2022/06/29 02:48:04;;;;;;;9.77;8.77;;;;;;;;;;5053822;28;20390;-78
2022/06/29 02:50:30;;;;;;;10.55;9.30;;;;;;;;;;5054846;28;20025;-78
2022/06/29 02:52:56;;;;;;;9.98;8.98;;;;;;;;;;5053581;28;20029;-77
2022/06/29 02:55:22;;;;;;;10.35;9.20;;;;;;;;;;5054893;28;20524;-76
2022/06/29 02:57:48;;;;;;;9.60;8.70;;;;;;;;;;5053487;28;20025;-78
2022/06/29 03:00:15;;;;;;;10.05;8.93;;;;;;;;;;5053394;28;20052;-79
2022/06/29 03:02:41;;;;;;;9.52;8.52;;;;;;;;;;5053369;28;20032;-79
2022/06/29 03:05:08;;;;;;;11.07;9.45;;;;;;;;;;5053298;28;20470;-78
2022/06/29 03:07:34;;;;;;;10.57;9.52;;;;;;;;;;5053275;28;20397;-78
2022/06/29 03:10:00;;;;;;;9.75;8.75;;;;;;;;;;5054475;28;20032;-78
2022/06/29 03:12:27;;;;;;;10.93;9.02;;;;;;;;;;5053238;28;20043;-79
2022/06/29 03:14:53;;;;;;;9.65;8.75;;;;;;;;;;5053234;28;20021;-78
2022/06/29 03:17:23;;;;;;;10.20;9.15;;;;;;;;;;5053134;28;20032;-79
2022/06/29 03:19:49;;;;;;;10.82;9.35;;;;;;;;;;5053062;28;20481;-79
2022/06/29 03:22:15;;;;;;;9.68;8.60;;;;;;;;;;5053040;28;20115;-77
2022/06/29 03:24:41;;;;;;;9.48;8.43;;;;;;;;;;5052953;28;20076;-79
2022/06/29 03:27:07;;;;;;;10.38;9.05;;;;;;;;;;5052642;28;20075;-76
2022/06/29 03:29:33;;;;;;;10.27;9.13;;;;;;;;;;5052993;28;20024;-77
2022/06/29 03:32:00;;;;;;;9.77;8.77;;;;;;;;;;5052874;28;20028;-77
2022/06/29 03:34:26;;;;;;;10.48;9.45;;;;;;;;;;5053698;28;20029;-77
2022/06/29 03:36:52;;;;;;;10.00;8.95;;;;;;;;;;5052971;28;20033;-76
2022/06/29 03:39:18;;;;;;;10.07;9.02;;;;;;;;;;5054117;28;20029;-78
2022/06/29 03:41:44;;;;;;;9.85;8.85;;;;;;;;;;5052804;28;20025;-78
2022/06/29 03:44:10;;;;;;;10.02;9.02;;;;;;;;;;5052757;28;20103;-78
2022/06/29 03:46:36;;;;;;;10.40;9.40;;;;;;;;;;5052545;28;20478;-76
2022/06/29 03:49:02;;;;;;;10.38;9.27;;;;;;;;;;5053855;28;20025;-76
2022/06/29 03:51:29;;;;;;;9.55;8.65;;;;;;;;;;5052531;28;20029;-78
2022/06/29 03:53:55;;;;;;;10.07;9.18;;;;;;;;;;5053821;28;20477;-77
2022/06/29 03:56:21;;;;;;;12.43;8.70;;;;;;;;;;5052129;28;20036;-78
2022/06/29 03:58:47;;;;;;;10.32;9.32;;;;;;;;;;5053881;28;20036;-77
2022/06/29 04:01:13;;;;;;;9.57;8.68;;;;;;;;;;5053600;28;20035;-77
2022/06/29 04:03:40;;;;;;;9.98;9.07;;;;;;;;;;5052306;28;20139;-78
2022/06/29 04:06:06;;;;;;;9.85;8.95;;;;;;;;;;5053608;28;20085;-79
2022/06/29 04:08:33;;;;;;;9.95;8.60;;;;;;;;;;5052250;28;20046;-80
2022/06/29 04:10:59;;;;;;;9.43;8.52;;;;;;;;;;5052089;28;20456;-78
2022/06/29 04:13:25;;;;;;;9.75;8.73;;;;;;;;;;5052183;28;20025;-77
2022/06/29 04:15:51;;;;;;;10.20;8.95;;;;;;;;;;5052108;28;20029;-78
2022/06/29 04:18:17;;;;;;;9.88;8.68;;;;;;;;;;5053553;28;20146;-77
2022/06/29 04:23:29;;;;;;;10.15;8.52;;;;;;;;;;5053562;28;20394;-79
2022/06/29 04:25:55;;;;;;;8.38;7.32;;;;;;;;;;5051759;28;20049;-79
2022/06/29 04:28:21;;;;;;;8.50;7.70;;;;;;;;;;5052082;28;20024;-77
2022/06/29 04:30:47;;;;;;;8.25;7.05;;;;;;;;;;5052031;28;20052;-79
2022/06/29 04:33:13;;;;;;;8.77;7.65;;;;;;;;;;5051967;28;20190;-78
2022/06/29 04:35:40;;;;;;;8.93;7.88;;;;;;;;;;5051890;28;20032;-78
2022/06/29 04:38:06;;;;;;;9.65;7.35;;;;;;;;;;5053153;28;20025;-77
2022/06/29 04:40:32;;;;;;;10.30;7.68;;;;;;;;;;5053169;28;20500;-78
2022/06/29 04:42:58;;;;;;;8.15;7.35;;;;;;;;;;5051901;28;20033;-79
2022/06/29 04:51:13;;;;;;;8.80;7.78;;;;;;;;;;5053699;28;20055;-81
2022/06/29 04:53:39;;;;;;;11.38;8.88;;;;;;;;;;5051878;28;20021;-79
2022/06/29 04:56:05;;;;;;;9.52;8.18;;;;;;;;;;5051848;28;20024;-81
2022/06/29 04:58:32;;;;;;;11.00;7.65;;;;;;;;;;5053009;28;20079;-79
2022/06/29 05:00:58;;;;;;;8.38;7.57;;;;;;;;;;5051659;28;20025;-80
2022/06/29 05:03:25;;;;;;;11.35;8.32;;;;;;;;;;5051810;28;20028;-79
2022/06/29 05:05:51;;;;;;;12.50;8.68;;;;;;;;;;5051674;28;20037;-79
2022/06/29 05:08:19;;;;;;;8.98;8.07;;;;;;;;;;5053605;28;20029;-80
2022/06/29 05:10:45;;;;;;;9.23;7.00;;;;;;;;;;5057052;28;20029;-79
2022/06/29 05:13:11;;;;;;;8.98;7.28;;;;;;;;;;5056728;28;20025;-76
2022/06/29 05:15:38;;;;;;;8.45;7.22;;;;;;;;;;5055758;28;20116;-83
2022/06/29 05:18:05;;;;;;;8.90;7.15;;;;;;;;;;5057124;28;20029;-84
2022/06/29 05:20:31;;;;;;;9.75;6.70;;;;;;;;;;5055674;28;20048;-88
2022/06/29 05:22:57;;;;;;;9.95;7.18;;;;;;;;;;5055535;28;20036;-81
2022/06/29 05:25:23;;;;;;;6.95;6.25;;;;;;;;;;5055120;28;20570;-82
2022/06/29 05:27:49;;;;;;;10.02;6.97;;;;;;;;;;5057659;28;20474;-78
2022/06/29 05:30:15;;;;;;;8.15;6.55;;;;;;;;;;5054998;28;20028;-74
2022/06/29 05:32:42;;;;;;;7.00;6.30;;;;;;;;;;5054736;28;20033;-77
2022/06/29 05:35:08;;;;;;;7.47;6.65;;;;;;;;;;5055745;28;20367;-74
2022/06/29 05:37:34;;;;;;;7.35;6.47;;;;;;;;;;5071369;28;20043;-76
2022/06/29 05:40:01;;;;;;;9.13;6.82;;;;;;;;;;5055175;28;20021;-74
2022/06/29 05:42:27;;;;;;;7.43;5.63;;;;;;;;;;5071428;28;20116;-79
2022/06/29 05:44:54;;;;;;;8.52;6.65;;;;;;;;;;5071407;28;20029;-74
2022/06/29 05:47:20;;;;;;;7.72;6.32;;;;;;;;;;5055890;28;20079;-75
2022/06/29 05:49:46;;;;;;;7.20;6.03;;;;;;;;;;5071247;28;20044;-74
2022/06/29 05:52:12;;;;;;;7.90;6.20;;;;;;;;;;5071411;28;20021;-73
2022/06/29 05:54:38;;;;;;;8.07;6.43;;;;;;;;;;5054624;28;20032;-78
2022/06/29 05:57:05;;;;;;;8.25;5.93;;;;;;;;;;5054504;28;20025;-73
2022/06/29 05:59:31;;;;;;;6.90;5.80;;;;;;;;;;5054351;28;20037;-74
2022/06/29 06:01:58;;;;;;;7.88;5.18;;;;;;;;;;5054424;28;20150;-74
2022/06/29 06:04:25;;;;;;;7.88;5.60;;;;;;;;;;5054399;28;20029;-76
2022/06/29 06:06:52;;;;;;;6.45;4.72;;;;;;;;;;5054249;28;20033;-76
2022/06/29 06:09:22;;;;;;;6.15;5.30;;;;;;;;;;5054121;28;20028;-75
2022/06/29 06:11:48;;;;;;;6.05;4.68;;;;;;;;;;5055514;28;20020;-74
2022/06/29 06:14:14;;;;;;;7.60;4.85;;;;;;;;;;5055512;28;20437;-75
2022/06/29 06:16:40;;;;;;;6.78;4.68;;;;;;;;;;5054165;28;20025;-75
2022/06/29 06:19:06;;;;;;;5.93;4.72;;;;;;;;;;5053646;28;20028;-74
2022/06/29 06:21:32;;;;;;;8.50;5.22;;;;;;;;;;5053899;28;20029;-75
2022/06/29 06:23:58;;;;;;;6.97;5.15;;;;;;;;;;5055424;28;20033;-77
2022/06/29 06:26:25;;;;;;;6.93;5.22;;;;;;;;;;5053674;28;20041;-76
2022/06/29 06:28:52;;;;;;;7.20;4.60;;;;;;;;;;5053910;28;20504;-75
2022/06/29 06:31:18;;;;;;;7.22;4.43;;;;;;;;;;5053874;28;20394;-77
2022/06/29 06:33:44;;;;;;;8.85;4.57;;;;;;;;;;5053825;28;20355;-76
2022/06/29 06:36:10;;;;;;;12.77;4.78;;;;;;;;;;5053661;28;20492;-76
2022/06/29 06:38:37;;;;;;;7.82;4.60;;;;;;;;;;5053857;28;20025;-77
2022/06/29 06:43:48;;;;;;;6.93;4.88;;;;;;;;;;5055130;28;20036;-76
2022/06/29 06:46:14;;;;;;;5.82;4.43;;;;;;;;;;5053514;28;20494;-77
2022/06/29 06:48:42;;;;;;;7.28;4.63;;;;;;;;;;5053546;28;20033;-77
2022/06/29 06:51:10;;;;;;;7.65;4.47;;;;;;;;;;5053604;28;20035;-78
2022/06/29 06:53:36;;;;;;;5.18;4.32;;;;;;;;;;5054766;28;20027;-75
2022/06/29 06:56:02;;;;;;;6.25;4.40;;;;;;;;;;5053383;28;20120;-77
2022/06/29 06:58:28;;;;;;;5.38;3.80;;;;;;;;;;5053344;28;20441;-75
2022/06/29 07:00:54;;;;;;;5.15;4.13;;;;;;;;;;5054751;28;20032;-77
2022/06/29 07:03:20;;;;;;;9.27;4.20;;;;;;;;;;5053266;28;20378;-76
2022/06/29 07:05:47;;;;;;;10.43;4.15;;;;;;;;;;5054519;28;20032;-75
2022/06/29 07:08:13;;;;;;;5.28;4.05;;;;;;;;;;5054522;28;20053;-76
2022/06/29 07:10:39;;;;;;;6.45;3.97;;;;;;;;;;5054424;28;20032;-73
2022/06/29 07:13:05;;;;;;;4.28;3.80;;;;;;;;;;5054368;28;20094;-75
2022/06/29 07:15:31;;;;;;;4.95;3.70;;;;;;;;;;5052911;28;20115;-75
2022/06/29 07:17:57;;;;;;;8.95;4.40;;;;;;;;;;5053029;28;20186;-74
2022/06/29 07:20:28;;;;;;;7.28;4.00;;;;;;;;;;5052981;28;20028;-74
2022/06/29 07:22:54;;;;;;;7.85;4.30;;;;;;;;;;5054299;28;20032;-74
2022/06/29 07:25:20;;;;;;;17.85;5.13;;;;;;;;;;5053741;28;20470;-75
2022/06/29 07:27:46;;;;;;;12.30;4.95;;;;;;;;;;5052897;28;20025;-74
2022/06/29 07:30:13;;;;;;;7.68;3.90;;;;;;;;;;5053233;28;20036;-76
2022/06/29 07:32:39;;;;;;;8.68;3.78;;;;;;;;;;5054022;28;20037;-75
2022/06/29 07:35:05;;;;;;;9.45;4.03;;;;;;;;;;5053993;28;20110;-75
2022/06/29 07:37:31;;;;;;;8.52;4.20;;;;;;;;;;5069186;28;20037;-75
2022/06/29 07:39:57;;;;;;;9.40;4.20;;;;;;;;;;5053901;28;20020;-74
2022/06/29 07:42:23;;;;;;;8.50;3.78;;;;;;;;;;5053627;28;20032;-74
2022/06/29 07:44:49;;;;;;;7.07;3.67;;;;;;;;;;5069167;28;20021;-75
2022/06/29 07:47:16;;;;;;;13.98;4.10;;;;;;;;;;5053870;28;20033;-77
2022/06/29 07:49:42;;;;;;;10.07;3.75;;;;;;;;;;5054395;28;20021;-75
2022/06/29 07:52:11;;;;;;;7.10;3.85;;;;;;;;;;5053430;28;20025;-77
2022/06/29 07:54:37;;;;;;;4.68;3.30;;;;;;;;;;5068331;28;20036;-74
2022/06/29 07:57:03;;;;;;;8.98;3.78;;;;;;;;;;5053163;28;20029;-75
2022/06/29 07:59:29;;;;;;;7.63;3.88;;;;;;;;;;5052225;28;20478;-74
2022/06/29 08:01:55;;;;;;;8.70;3.67;;;;;;;;;;5053459;28;20050;-74
2022/06/29 08:04:21;;;;;;;6.18;3.05;;;;;;;;;;5053395;28;20051;-74
2022/06/29 08:06:47;;;;;;;4.72;3.15;;;;;;;;;;5052243;28;20485;-74
2022/06/29 08:09:13;;;;;;;4.60;3.03;;;;;;;;;;5068607;28;20017;-74
2022/06/29 08:11:39;;;;;;;8.10;3.30;;;;;;;;;;5068548;28;20081;-74
2022/06/29 08:14:05;;;;;;;6.18;3.22;;;;;;;;;;5068748;28;20028;-75
2022/06/29 08:16:31;;;;;;;4.60;3.17;;;;;;;;;;5053426;28;20025;-77
2022/06/29 08:18:58;;;;;;;6.28;3.00;;;;;;;;;;5068786;28;20040;-76
2022/06/29 08:21:27;;;;;;;6.22;3.03;;;;;;;;;;5067944;28;20163;-78
2022/06/29 08:23:53;;;;;;;4.82;2.97;;;;;;;;;;5067352;28;20119;-78
2022/06/29 08:26:19;;;;;;;5.32;3.15;;;;;;;;;;5068380;28;20472;-78
2022/06/29 08:28:45;;;;;;;3.55;2.50;;;;;;;;;;5053128;28;20029;-74
2022/06/29 08:31:11;;;;;;;6.43;3.00;;;;;;;;;;5068438;28;20021;-75
2022/06/29 08:33:42;;;;;;;4.25;2.70;;;;;;;;;;5068472;28;20025;-80
2022/06/29 08:36:09;;;;;;;5.05;3.03;;;;;;;;;;5067657;28;20102;-76
2022/06/29 08:38:35;;;;;;;5.15;2.70;;;;;;;;;;5068519;28;20116;-76
2022/06/29 08:41:01;;;;;;;5.25;2.70;;;;;;;;;;5068551;28;20033;-76
2022/06/29 08:43:27;;;;;;;6.43;3.00;;;;;;;;;;5072454;28;20024;-77
2022/06/29 08:45:54;;;;;;;8.20;2.95;;;;;;;;;;5055883;28;20539;-75
2022/06/29 08:48:20;;;;;;;5.82;2.50;;;;;;;;;;5055770;28;20079;-75
2022/06/29 08:50:54;;;;;;;5.28;2.80;;;;;;;;;;5055753;28;20039;-75
2022/06/29 08:53:20;;;;;;;3.60;2.42;;;;;;;;;;5055458;28;20090;-75
2022/06/29 08:55:47;;;;;;;7.30;2.80;;;;;;;;;;5057265;28;20049;-77
2022/06/29 08:58:15;;;;;;;5.95;2.42;;;;;;;;;;5055139;28;20036;-78
2022/06/29 09:00:41;;;;;;;5.93;2.70;;;;;;;;;;5055494;28;20056;-78
2022/06/29 09:03:07;;;;;;;6.00;2.38;;;;;;;;;;5052663;28;20041;-74
2022/06/29 09:05:33;;;;;;;5.10;2.40;;;;;;;;;;5056359;28;20517;-75
2022/06/29 09:08:00;;;;;;;4.68;2.22;;;;;;;;;;5056369;28;20037;-76
2022/06/29 09:10:31;;;;;;;4.50;2.10;;;;;;;;;;5056571;28;20029;-74
2022/06/29 09:13:01;;;;;;;4.13;2.20;;;;;;;;;;5055019;28;20474;-74
2022/06/29 09:15:38;;;;;;;3.47;2.28;;;;;;;;;;5055635;28;20080;-75
2022/06/29 10:20:23;;;;;;;5.78;1.80;;;;;;;;;;4916747;29;19923;-93
2022/06/29 10:22:51;;;;;;;6.78;2.40;;;;;;;;;;4934359;29;20043;-94
2022/06/29 10:25:31;;;;;;;4.78;1.88;;;;;;;;;;4940607;29;20412;-93
2022/06/29 10:28:39;;;;;;;8.75;2.20;;;;;;;;;;4918448;29;20039;-90
2022/06/29 10:31:05;;;;;;;6.03;2.05;;;;;;;;;;4934800;29;20032;-91
2022/06/29 10:33:40;;;;;;;5.80;2.22;;;;;;;;;;4934283;29;20028;-91
2022/06/29 10:36:17;;;;;;;5.13;1.75;;;;;;;;;;4934502;29;20072;-90
2022/06/29 10:39:05;;;;;;;5.90;2.00;;;;;;;;;;4935867;29;20057;-92
2022/06/29 10:44:54;;;;;;;4.75;2.30;;;;;;;;;;4920198;29;20541;-93
2022/06/29 10:47:30;;;;;;;5.45;2.22;;;;;;;;;;4934999;29;20477;-93
2022/06/29 10:50:23;;;;;;;6.13;2.50;;;;;;;;;;4944940;29;20032;-93
2022/06/29 10:52:53;;;;;;;7.45;2.38;;;;;;;;;;4934857;29;20063;-92
2022/06/29 10:55:29;;;;;;;5.95;2.17;;;;;;;;;;4936073;29;20044;-92
2022/06/29 10:57:59;;;;;;;5.60;2.33;;;;;;;;;;4934547;29;20064;-92
2022/06/29 11:00:26;;;;;;;4.80;2.05;;;;;;;;;;4935555;29;20028;-93
2022/06/29 11:02:56;;;;;;;6.22;2.08;;;;;;;;;;4934475;29;20025;-93
2022/06/29 11:05:22;;;;;;;4.70;2.00;;;;;;;;;;4932360;29;20078;-93
2022/06/29 11:17:03;;;;;;;4.55;2.00;;;;;;;;;;4919785;29;20066;-94
2022/06/29 11:19:38;;;;;;;5.63;1.95;;;;;;;;;;4935116;29;20091;-94
2022/06/29 11:22:19;;;;;;;3.80;1.90;;;;;;;;;;4936162;29;20024;-92
2022/06/29 11:24:59;;;;;;;6.33;2.10;;;;;;;;;;4941252;28;20040;-92
2022/06/29 11:27:38;;;;;;;4.50;2.20;;;;;;;;;;4936170;29;20453;-93
2022/06/29 11:30:30;;;;;;;6.85;1.90;;;;;;;;;;4934872;29;20611;-92
2022/06/29 11:32:59;;;;;;;7.18;1.80;;;;;;;;;;4938901;28;20087;-93
2022/06/29 11:35:44;;;;;;;6.50;2.20;;;;;;;;;;4946713;28;20063;-93
2022/06/29 11:38:26;;;;;;;5.03;2.38;;;;;;;;;;4933808;29;20505;-93
2022/06/29 11:41:25;;;;;;;;;;;;;;;;;;;;;
2022/06/29 11:44:02;;;;;;;4.30;1.95;;;;;;;;;;4918966;29;20038;-92
2022/06/29 11:46:37;;;;;;;6.13;2.55;;;;;;;;;;4933640;29;20533;-91
2022/06/29 11:51:57;;;;;;;8.20;2.40;;;;;;;;;;4919742;29;20046;-92
2022/06/29 11:54:44;;;;;;;5.90;2.38;;;;;;;;;;4933267;29;20120;-93
2022/06/29 11:57:23;;;;;;;6.55;2.53;;;;;;;;;;4932061;29;20043;-91
2022/06/29 11:59:49;;;;;;;4.90;2.40;;;;;;;;;;4917739;29;20036;-92
2022/06/29 12:02:16;;;;;;;3.97;2.22;;;;;;;;;;4917928;29;20160;-90
2022/06/29 12:04:49;;;;;;;5.95;2.00;;;;;;;;;;4917299;29;20039;-91
2022/06/29 12:07:19;;;;;;;4.35;2.40;;;;;;;;;;4917249;29;20564;-91
2022/06/29 12:09:49;;;;;;;5.13;2.20;;;;;;;;;;4917533;29;20036;-90
2022/06/29 12:12:18;;;;;;;5.00;2.40;;;;;;;;;;4928856;29;20127;-91
2022/06/29 12:15:13;;;;;;;5.28;2.30;;;;;;;;;;4933422;29;20043;-91
2022/06/29 12:17:58;;;;;;;3.95;2.10;;;;;;;;;;4929911;29;20133;-91
2022/06/29 12:20:30;;;;;;;3.72;2.05;;;;;;;;;;4932646;29;20056;-92
2022/06/29 12:22:59;;;;;;;5.82;2.30;;;;;;;;;;4932269;29;20512;-93
2022/06/29 12:25:28;;;;;;;5.97;2.20;;;;;;;;;;4933255;29;20401;-92
2022/06/29 12:28:10;;;;;;;3.45;2.10;;;;;;;;;;4924816;29;20386;-92
2022/06/29 12:30:42;;;;;;;5.07;2.20;;;;;;;;;;4932974;29;20111;-92
2022/06/29 12:33:11;;;;;;;5.03;2.38;;;;;;;;;;4933046;29;20115;-91
2022/06/29 12:35:37;;;;;;;9.40;2.47;;;;;;;;;;4932446;29;20481;-91
2022/06/29 12:38:04;;;;;;;4.63;2.55;;;;;;;;;;4932718;29;20115;-90
2022/06/29 12:40:30;;;;;;;4.55;2.50;;;;;;;;;;4932538;29;20024;-92
2022/06/29 12:42:56;;;;;;;11.23;2.40;;;;;;;;;;4932776;29;20032;-92
2022/06/29 12:45:24;;;;;;;7.35;2.33;;;;;;;;;;4932749;29;20469;-90
2022/06/29 12:47:50;;;;;;;6.43;2.50;;;;;;;;;;4932674;29;20492;-91
2022/06/29 12:50:17;;;;;;;6.35;2.65;;;;;;;;;;4941217;29;20008;-91
2022/06/29 12:52:51;;;;;;;4.63;2.45;;;;;;;;;;4936101;29;20070;-92
2022/06/29 12:55:21;;;;;;;5.38;2.50;;;;;;;;;;4936418;29;20032;-92
2022/06/29 12:57:48;;;;;;;7.40;2.42;;;;;;;;;;4932485;29;20045;-91
2022/06/29 13:00:18;;;;;;;5.47;2.50;;;;;;;;;;4932545;29;20083;-92
2022/06/29 13:05:49;;;;;;;4.90;2.47;;;;;;;;;;4934764;29;20042;-92
2022/06/29 13:08:15;;;;;;;5.43;2.50;;;;;;;;;;4932522;29;20111;-91
2022/06/29 13:10:42;;;;;;;5.30;2.70;;;;;;;;;;4932615;29;20071;-92
2022/06/29 13:13:08;;;;;;;5.85;2.50;;;;;;;;;;4933909;29;20028;-91
2022/06/29 13:15:34;;;;;;;5.22;2.65;;;;;;;;;;4932541;29;20028;-91
2022/06/29 13:18:02;;;;;;;5.03;2.33;;;;;;;;;;4932842;29;20028;-91
2022/06/29 13:20:29;;;;;;;5.75;2.53;;;;;;;;;;4932005;29;20052;-91
2022/06/29 13:22:55;;;;;;;3.85;2.35;;;;;;;;;;4939741;29;20065;-94
2022/06/29 13:25:21;;;;;;;4.80;2.50;;;;;;;;;;4932192;29;20028;-92
2022/06/29 13:27:48;;;;;;;6.55;2.42;;;;;;;;;;4932437;29;20033;-91
2022/06/29 13:30:16;;;;;;;5.15;2.50;;;;;;;;;;4935588;29;20412;-91
2022/06/29 13:32:44;;;;;;;4.55;2.55;;;;;;;;;;4935970;29;20035;-93
2022/06/29 13:35:20;;;;;;;5.82;2.80;;;;;;;;;;4935672;29;20028;-91
2022/06/29 13:37:59;;;;;;;;;;;;;;;;;;;;;
2022/06/29 13:40:29;;;;;;;6.00;2.40;;;;;;;;;;4921366;29;20030;-91
2022/06/29 13:43:01;;;;;;;3.33;2.40;;;;;;;;;;4935874;29;20035;-90
2022/06/29 13:45:33;;;;;;;3.05;2.05;;;;;;;;;;4935600;29;20036;-91
2022/06/29 13:47:59;;;;;;;4.05;2.30;;;;;;;;;;4935799;29;20039;-93
2022/06/29 13:50:32;;;;;;;9.88;2.90;;;;;;;;;;4937048;29;20032;-91
2022/06/29 13:52:58;;;;;;;5.65;2.60;;;;;;;;;;4948834;29;20032;-91
2022/06/29 13:55:30;;;;;;;8.20;2.70;;;;;;;;;;4935935;29;20052;-93
2022/06/29 13:57:59;;;;;;;7.22;2.78;;;;;;;;;;4936198;29;20036;-91
2022/06/29 14:00:31;;;;;;;3.45;2.05;;;;;;;;;;4936771;29;20124;-92
2022/06/29 14:03:43;;;;;;;4.90;2.58;;;;;;;;;;4935200;29;20389;-94
2022/06/29 14:05:44;;;;;;;6.45;2.63;;;;;;;;;;4927349;29;20119;-92
2022/06/29 14:08:10;;;;;;;6.55;2.58;;;;;;;;;;4935728;29;20028;-93
2022/06/29 14:10:37;;;;;;;7.38;3.00;;;;;;;;;;4935819;29;20055;-93
2022/06/29 14:13:09;;;;;;;6.03;2.70;;;;;;;;;;4935265;29;20032;-95
2022/06/29 14:15:45;;;;;;;4.43;2.67;;;;;;;;;;4935618;29;20036;-94
2022/06/29 14:18:14;;;;;;;5.10;2.88;;;;;;;;;;4936899;29;20064;-94
2022/06/29 14:20:43;;;;;;;6.10;2.70;;;;;;;;;;4921241;29;20083;-92
2022/06/29 14:23:10;;;;;;;5.40;2.42;;;;;;;;;;4936036;29;20040;-94
2022/06/29 14:25:42;;;;;;;3.28;2.50;;;;;;;;;;4946308;28;20040;-93
2022/06/29 14:28:15;;;;;;;;;;;;;;;;;;4936252;29;20024;-94
2022/06/29 14:30:50;;;;;;;4.95;2.40;;;;;;;;;;4937624;29;19913;-93
2022/06/29 14:33:38;;;;;;;6.80;2.97;;;;;;;;;;4936159;29;20032;-92
2022/06/29 14:36:06;;;;;;;8.75;2.70;;;;;;;;;;4921654;28;20067;-91
2022/06/29 14:38:35;;;;;;;5.10;2.70;;;;;;;;;;4952637;29;20088;-92
2022/06/29 14:41:25;;;;;;;4.88;2.38;;;;;;;;;;4951605;28;20469;-92
2022/06/29 14:43:57;;;;;;;6.95;2.63;;;;;;;;;;4938453;29;20119;-94
2022/06/29 14:46:23;;;;;;;6.40;2.40;;;;;;;;;;4937747;29;20039;-93
2022/06/29 14:48:49;;;;;;;4.43;2.50;;;;;;;;;;4935630;29;20032;-94
2022/06/29 14:51:40;;;;;;;4.60;2.67;;;;;;;;;;4935928;29;20048;-93
2022/06/29 14:57:03;;;;;;;6.25;2.80;;;;;;;;;;4939489;29;20086;-94
2022/06/29 14:59:41;;;;;;;6.47;2.80;;;;;;;;;;4950011;28;20029;-93
2022/06/29 15:02:19;;;;;;;17.05;2.92;;;;;;;;;;4936124;29;20028;-93
2022/06/29 15:04:51;;;;;;;6.72;2.80;;;;;;;;;;4934965;29;20024;-92
2022/06/29 15:07:18;;;;;;;8.23;2.97;;;;;;;;;;4936263;29;20366;-94
2022/06/29 15:09:44;;;;;;;5.25;2.70;;;;;;;;;;4937251;29;20025;-93
2022/06/29 15:12:13;;;;;;;5.70;2.67;;;;;;;;;;4936125;29;20035;-94
2022/06/29 15:14:57;;;;;;;5.97;2.58;;;;;;;;;;4935984;29;20071;-94
2022/06/29 15:17:36;;;;;;;3.88;2.75;;;;;;;;;;4936028;29;20107;-93
2022/06/29 15:20:03;;;;;;;6.28;2.85;;;;;;;;;;4934017;29;20051;-94
2022/06/29 15:22:32;;;;;;;6.85;2.78;;;;;;;;;;4934875;29;20032;-96
2022/06/29 15:24:59;;;;;;;5.97;2.55;;;;;;;;;;4934900;29;20032;-94
2022/06/29 15:27:28;;;;;;;8.82;3.08;;;;;;;;;;4934502;29;20040;-92
2022/06/29 15:30:01;;;;;;;9.02;3.03;;;;;;;;;;4940400;29;20031;-94
2022/06/29 15:40:50;;;;;;;5.15;2.72;;;;;;;;;;4923646;29;20422;-94
2022/06/29 15:43:31;;;;;;;9.43;3.17;;;;;;;;;;4939541;29;20028;-95
2022/06/29 15:45:58;;;;;;;7.43;2.92;;;;;;;;;;4920520;29;20032;-94
2022/06/29 15:48:30;;;;;;;3.97;2.85;;;;;;;;;;4933936;29;20470;-94
2022/06/29 15:51:03;;;;;;;5.00;3.17;;;;;;;;;;4933629;29;20377;-94
2022/06/29 15:56:20;;;;;;;7.00;2.85;;;;;;;;;;4919530;29;20099;-95
2022/06/29 15:58:48;;;;;;;5.95;3.03;;;;;;;;;;4919688;29;20033;-94
2022/06/29 16:01:20;;;;;;;9.38;2.97;;;;;;;;;;4936105;29;20074;-93
2022/06/29 16:04:07;;;;;;;11.13;3.05;;;;;;;;;;4927700;28;20083;-94
2022/06/29 16:06:45;;;;;;;6.85;2.72;;;;;;;;;;4946566;29;20018;-93
2022/06/29 16:12:06;;;;;;;8.02;2.70;;;;;;;;;;4996808;23;20098;-93
2022/06/29 16:14:51;;;;;;;7.32;2.95;;;;;;;;;;4928321;29;20057;-96
2022/06/29 16:17:21;;;;;;;7.35;2.75;;;;;;;;;;4921338;29;20048;-94
2022/06/29 16:20:13;;;;;;;10.20;3.17;;;;;;;;;;4935101;29;20028;-94
2022/06/29 16:22:49;;;;;;;5.03;2.60;;;;;;;;;;4937226;29;20485;-96
2022/06/29 16:25:16;;;;;;;4.63;2.80;;;;;;;;;;4936091;29;20511;-94
2022/06/29 16:27:45;;;;;;;5.25;3.00;;;;;;;;;;4933658;29;20046;-94
2022/06/29 16:30:15;;;;;;;5.93;2.95;;;;;;;;;;4934442;29;20032;-93
2022/06/29 16:32:41;;;;;;;5.28;2.63;;;;;;;;;;4933142;29;20039;-93
2022/06/29 16:35:11;;;;;;;7.25;2.70;;;;;;;;;;4932789;29;20056;-93
2022/06/29 16:37:40;;;;;;;5.15;2.75;;;;;;;;;;4945249;28;20032;-93
2022/06/29 16:40:16;;;;;;;7.75;2.80;;;;;;;;;;4937945;29;20032;-96
2022/06/29 16:42:55;;;;;;;5.45;3.08;;;;;;;;;;4939059;29;20373;-96
2022/06/29 16:45:27;;;;;;;7.70;2.50;;;;;;;;;;4936404;29;20032;-93
2022/06/29 16:47:59;;;;;;;5.63;2.80;;;;;;;;;;4937142;29;20033;-93